createdAt,value
2023-06-04T00:00:10.275Z,12.17
2023-06-04T00:02:36.954Z,12.19
2023-06-04T00:05:03.945Z,12.11
2023-06-04T00:07:30.869Z,12.12
2023-06-04T00:09:57.420Z,12.11
2023-06-04T00:12:23.943Z,12.10
2023-06-04T00:14:50.585Z,12.07
2023-06-04T00:17:17.179Z,12.07
2023-06-04T00:19:43.686Z,12.03
2023-06-04T00:22:10.353Z,12.05
2023-06-04T00:24:40.074Z,12.01
2023-06-04T00:27:08.290Z,12.04
2023-06-04T00:29:34.852Z,12.06
2023-06-04T00:32:01.469Z,12.06
2023-06-04T00:34:28.532Z,12.05
2023-06-04T00:36:55.034Z,12.10
2023-06-04T00:39:21.594Z,12.07
2023-06-04T00:41:48.228Z,12.02
2023-06-04T00:44:14.793Z,12.03
2023-06-04T00:46:41.323Z,12.04
2023-06-04T00:49:08.030Z,12.01
2023-06-04T00:51:34.757Z,11.98
2023-06-04T00:54:09.636Z,11.98
2023-06-04T00:56:38.167Z,11.91
2023-06-04T00:59:06.900Z,11.85
2023-06-04T01:02:07.991Z,11.82
2023-06-04T01:04:45.776Z,11.84
2023-06-04T01:07:14.495Z,11.84
2023-06-04T01:09:41.548Z,11.85
2023-06-04T01:12:08.918Z,11.82
2023-06-04T01:14:35.402Z,11.82
2023-06-04T01:17:42.036Z,11.74
2023-06-04T01:20:09.513Z,11.80
2023-06-04T01:22:44.936Z,11.77
2023-06-04T01:25:27.423Z,11.77
2023-06-04T01:27:58.025Z,11.76
2023-06-04T01:30:27.274Z,11.73
2023-06-04T01:32:55.695Z,11.73
2023-06-04T01:35:24.313Z,11.72
2023-06-04T01:37:52.855Z,11.66
2023-06-04T01:40:19.934Z,11.66
2023-06-04T01:42:46.406Z,11.63
2023-06-04T01:45:13.356Z,11.66
2023-06-04T01:47:39.947Z,11.59
2023-06-04T01:50:10.430Z,11.59
2023-06-04T01:52:41.268Z,11.51
2023-06-04T01:55:10.222Z,11.52
2023-06-04T01:57:37.530Z,11.54
2023-06-04T02:00:06.261Z,11.52
2023-06-04T02:02:32.765Z,11.50
2023-06-04T02:04:59.249Z,11.47
2023-06-04T02:07:26.998Z,11.38
2023-06-04T02:09:53.572Z,11.39
2023-06-04T02:12:21.225Z,11.39
2023-06-04T02:14:48.076Z,11.34
2023-06-04T02:17:14.614Z,11.32
2023-06-04T02:19:45.818Z,11.27
2023-06-04T02:22:13.275Z,11.26
2023-06-04T02:24:43.443Z,11.22
2023-06-04T02:27:10.559Z,11.17
2023-06-04T02:29:37.286Z,11.17
2023-06-04T02:32:05.027Z,11.13
2023-06-04T02:34:31.674Z,11.06
2023-06-04T02:36:59.521Z,11.02
2023-06-04T02:39:26.222Z,10.96
2023-06-04T02:41:52.826Z,10.91
2023-06-04T02:44:19.354Z,10.86
2023-06-04T02:46:45.930Z,10.81
2023-06-04T02:49:31.309Z,10.80
2023-06-04T02:51:57.773Z,10.75
2023-06-04T02:54:28.227Z,10.67
2023-06-04T02:56:54.747Z,10.66
2023-06-04T02:59:21.484Z,10.59
2023-06-04T03:01:48.090Z,10.58
2023-06-04T03:04:16.733Z,10.56
2023-06-04T03:06:47.301Z,10.51
2023-06-04T03:09:19.171Z,10.45
2023-06-04T03:11:45.747Z,10.40
2023-06-04T03:14:12.228Z,10.38
2023-06-04T03:16:40.891Z,10.35
2023-06-04T03:19:07.562Z,10.31
2023-06-04T03:21:34.054Z,10.27
2023-06-04T03:24:00.947Z,10.22
2023-06-04T03:26:28.828Z,10.19
2023-06-04T03:28:55.569Z,10.19
2023-06-04T03:31:22.402Z,10.08
2023-06-04T03:33:48.914Z,10.09
2023-06-04T03:36:17.471Z,10.04
2023-06-04T03:38:46.599Z,10.02
2023-06-04T03:41:17.275Z,10.01
2023-06-04T03:43:43.773Z,9.99
2023-06-04T03:46:10.475Z,9.95
2023-06-04T03:48:36.958Z,9.92
2023-06-04T03:51:03.465Z,9.87
2023-06-04T03:53:29.972Z,9.83
2023-06-04T03:55:56.616Z,9.80
2023-06-04T03:58:25.627Z,9.80
2023-06-04T04:00:52.536Z,9.83
2023-06-04T04:03:19.575Z,9.80
2023-06-04T04:05:48.706Z,9.79
2023-06-04T04:08:17.235Z,9.80
2023-06-04T04:10:43.802Z,9.79
2023-06-04T04:13:10.406Z,9.82
2023-06-04T04:15:36.864Z,9.81
2023-06-04T04:18:04.309Z,9.77
2023-06-04T04:20:30.846Z,9.79
2023-06-04T04:22:58.826Z,9.81
2023-06-04T04:25:25.335Z,9.81
2023-06-04T04:27:51.806Z,9.80
2023-06-04T04:30:18.874Z,9.82
2023-06-04T04:32:50.070Z,9.85
2023-06-04T04:35:19.647Z,9.85
2023-06-04T04:37:46.449Z,9.91
2023-06-04T04:40:13.621Z,9.96
2023-06-04T04:42:40.095Z,10.02
2023-06-04T04:45:07.411Z,10.06
2023-06-04T04:47:39.550Z,10.15
2023-06-04T04:50:06.904Z,10.23
2023-06-04T04:52:33.385Z,10.31
2023-06-04T04:55:05.994Z,10.36
2023-06-04T04:57:32.502Z,10.45
2023-06-04T04:59:59.088Z,10.53
2023-06-04T05:02:27.008Z,10.64
2023-06-04T05:04:54.546Z,10.70
2023-06-04T05:07:22.590Z,10.84
2023-06-04T05:09:49.150Z,10.94
2023-06-04T05:12:15.864Z,11.00
2023-06-04T05:14:42.815Z,11.13
2023-06-04T05:17:10.554Z,11.21
2023-06-04T05:19:46.013Z,11.29
2023-06-04T05:22:12.380Z,11.42
2023-06-04T05:24:38.845Z,11.49
2023-06-04T05:27:05.637Z,11.57
2023-06-04T05:29:32.142Z,11.65
2023-06-04T05:31:59.847Z,11.72
2023-06-04T05:34:27.872Z,11.82
2023-06-04T05:36:54.829Z,11.91
2023-06-04T05:39:21.498Z,11.96
2023-06-04T05:41:48.056Z,12.09
2023-06-04T05:44:14.541Z,12.18
2023-06-04T05:46:41.450Z,12.25
2023-06-04T05:49:07.904Z,12.31
2023-06-04T05:51:34.452Z,12.38
2023-06-04T05:54:00.936Z,12.45
2023-06-04T05:56:27.795Z,12.52
2023-06-04T05:58:59.724Z,12.59
2023-06-04T06:01:26.210Z,12.67
2023-06-04T06:03:52.915Z,12.74
2023-06-04T06:06:20.934Z,12.81
2023-06-04T06:08:47.882Z,12.85
2023-06-04T06:11:14.599Z,12.90
2023-06-04T06:13:41.294Z,12.94
2023-06-04T06:16:07.896Z,12.97
2023-06-04T06:18:34.452Z,13.02
2023-06-04T06:21:03.022Z,13.04
2023-06-04T06:23:29.702Z,13.09
2023-06-04T06:25:56.603Z,13.15
2023-06-04T06:28:23.093Z,13.20
2023-06-04T06:30:49.833Z,13.26
2023-06-04T06:33:22.544Z,13.36
2023-06-04T06:35:49.222Z,13.37
2023-06-04T06:38:18.428Z,13.46
2023-06-04T06:40:45.330Z,13.53
2023-06-04T06:43:11.947Z,13.57
2023-06-04T06:45:38.454Z,13.64
2023-06-04T06:48:05.390Z,13.66
2023-06-04T06:50:32.198Z,13.73
2023-06-04T06:52:58.692Z,13.81
2023-06-04T06:55:25.375Z,13.87
2023-06-04T06:57:51.973Z,14.01
2023-06-04T07:00:19.800Z,14.09
2023-06-04T07:02:46.353Z,14.19
2023-06-04T07:05:15.311Z,14.27
2023-06-04T07:07:41.895Z,14.37
2023-06-04T07:10:10.469Z,14.42
2023-06-04T07:12:37.053Z,14.48
2023-06-04T07:15:03.950Z,14.56
2023-06-04T07:17:30.452Z,14.66
2023-06-04T07:19:56.951Z,14.76
2023-06-04T07:22:23.428Z,14.85
2023-06-04T07:24:49.971Z,14.96
2023-06-04T07:27:16.758Z,15.06
2023-06-04T07:29:50.533Z,15.18
2023-06-04T07:32:17.102Z,15.29
2023-06-04T07:34:43.640Z,15.42
2023-06-04T07:37:10.793Z,15.52
2023-06-04T07:39:37.366Z,15.57
2023-06-04T07:42:06.672Z,15.68
2023-06-04T07:44:33.159Z,15.75
2023-06-04T07:46:59.791Z,15.85
2023-06-04T07:49:26.249Z,15.92
2023-06-04T07:51:52.789Z,16.03
2023-06-04T07:54:19.386Z,16.13
2023-06-04T07:56:45.906Z,16.19
2023-06-04T07:59:12.371Z,16.27
2023-06-04T08:01:38.918Z,16.34
2023-06-04T08:04:05.529Z,16.45
2023-06-04T08:06:32.255Z,16.59
2023-06-04T08:08:58.733Z,16.71
2023-06-04T08:11:25.669Z,16.84
2023-06-04T08:13:52.191Z,16.94
2023-06-04T08:16:18.719Z,17.05
2023-06-04T08:18:45.421Z,17.19
2023-06-04T08:21:12.767Z,17.29
2023-06-04T08:23:39.321Z,17.32
2023-06-04T08:26:08.946Z,17.45
2023-06-04T08:28:35.791Z,17.63
2023-06-04T08:31:02.403Z,17.72
2023-06-04T08:33:28.861Z,17.76
2023-06-04T08:35:55.463Z,17.83
2023-06-04T08:38:22.197Z,17.89
2023-06-04T08:40:54.060Z,17.90
2023-06-04T08:43:21.074Z,18.04
2023-06-04T08:45:51.058Z,18.14
2023-06-04T08:48:21.452Z,18.25
2023-06-04T08:50:49.184Z,18.32
2023-06-04T08:53:16.658Z,18.41
2023-06-04T08:55:43.998Z,18.59
2023-06-04T08:58:12.065Z,18.70
2023-06-04T09:00:38.571Z,18.81
2023-06-04T09:03:05.348Z,18.92
2023-06-04T09:05:32.000Z,19.05
2023-06-04T09:08:02.190Z,19.10
2023-06-04T09:10:31.151Z,19.17
2023-06-04T09:13:02.224Z,19.31
2023-06-04T09:15:28.722Z,19.41
2023-06-04T09:17:55.663Z,19.47
2023-06-04T09:20:25.641Z,19.57
2023-06-04T09:22:52.222Z,19.61
2023-06-04T09:25:26.293Z,19.63
2023-06-04T09:27:54.288Z,19.69
2023-06-04T09:30:21.150Z,19.75
2023-06-04T09:32:47.699Z,19.83
2023-06-04T09:35:20.616Z,19.88
2023-06-04T09:37:57.215Z,19.89
2023-06-04T09:40:24.636Z,19.90
2023-06-04T09:42:56.103Z,19.93
2023-06-04T09:45:30.137Z,20.07
2023-06-04T09:47:56.699Z,20.14
2023-06-04T09:50:28.182Z,20.12
2023-06-04T09:52:55.758Z,20.25
2023-06-04T09:55:23.495Z,20.36
2023-06-04T09:57:51.713Z,20.39
2023-06-04T10:00:19.655Z,20.54
2023-06-04T10:02:47.677Z,20.63
2023-06-04T10:05:15.632Z,20.76
2023-06-04T10:07:45.635Z,20.84
2023-06-04T10:10:17.373Z,20.88
2023-06-04T10:12:45.223Z,20.87
2023-06-04T10:15:14.825Z,20.90
2023-06-04T10:17:42.197Z,21.03
2023-06-04T10:20:09.928Z,21.12
2023-06-04T10:22:36.905Z,21.18
2023-06-04T10:25:06.531Z,21.36
2023-06-04T10:27:33.593Z,21.45
2023-06-04T10:30:00.850Z,21.42
2023-06-04T10:32:31.992Z,21.53
2023-06-04T10:34:58.857Z,21.64
2023-06-04T10:37:30.582Z,21.63
2023-06-04T10:39:58.725Z,21.77
2023-06-04T10:42:26.838Z,21.90
2023-06-04T10:44:57.585Z,22.05
2023-06-04T10:47:31.788Z,22.07
2023-06-04T10:50:10.979Z,22.08
2023-06-04T10:52:38.197Z,22.18
2023-06-04T10:55:06.122Z,22.26
2023-06-04T10:57:32.797Z,22.31
2023-06-04T11:00:01.442Z,22.34
2023-06-04T11:02:28.403Z,22.46
2023-06-04T11:05:02.483Z,22.43
2023-06-04T11:07:29.295Z,22.61
2023-06-04T11:09:56.569Z,22.89
2023-06-04T11:12:23.250Z,22.99
2023-06-04T11:14:56.998Z,23.03
2023-06-04T11:17:23.626Z,23.19
2023-06-04T11:19:50.618Z,23.37
2023-06-04T11:22:17.099Z,23.43
2023-06-04T11:24:43.775Z,23.71
2023-06-04T11:27:15.212Z,23.77
2023-06-04T11:29:51.297Z,23.96
2023-06-04T11:32:24.973Z,24.17
2023-06-04T11:34:51.621Z,24.39
2023-06-04T11:37:18.146Z,24.44
2023-06-04T11:39:45.592Z,24.66
2023-06-04T11:42:12.230Z,25.02
2023-06-04T11:44:39.599Z,25.39
2023-06-04T11:47:09.146Z,25.72
2023-06-04T11:49:36.753Z,26.10
2023-06-04T11:52:03.721Z,26.47
2023-06-04T11:54:30.453Z,26.61
2023-06-04T11:56:57.146Z,27.12
2023-06-04T11:59:24.615Z,27.62
2023-06-04T12:01:51.841Z,27.79
2023-06-04T12:04:20.130Z,27.95
2023-06-04T12:06:58.803Z,28.12
2023-06-04T12:09:29.902Z,28.28
2023-06-04T12:12:04.632Z,28.55
2023-06-04T12:14:31.258Z,28.70
2023-06-04T12:17:03.152Z,29.15
2023-06-04T12:19:29.796Z,29.09
2023-06-04T12:22:07.556Z,29.23
2023-06-04T12:24:38.840Z,29.43
2023-06-04T12:27:10.465Z,29.78
2023-06-04T12:29:36.983Z,30.23
2023-06-04T12:32:11.334Z,30.47
2023-06-04T12:34:39.865Z,30.45
2023-06-04T12:37:07.554Z,30.72
2023-06-04T12:39:40.444Z,30.78
2023-06-04T12:42:09.495Z,30.40
2023-06-04T12:44:42.336Z,30.72
2023-06-04T12:47:09.234Z,30.96
2023-06-04T12:49:35.965Z,30.89
2023-06-04T12:52:02.533Z,30.74
2023-06-04T12:54:29.132Z,30.76
2023-06-04T12:56:59.410Z,30.96
2023-06-04T12:59:29.436Z,30.78
2023-06-04T13:01:56.841Z,31.01
2023-06-04T13:04:24.836Z,31.29
2023-06-04T13:06:54.193Z,31.50
2023-06-04T13:09:21.700Z,31.67
2023-06-04T13:11:48.322Z,31.85
2023-06-04T13:14:14.890Z,31.72
2023-06-04T13:16:42.129Z,31.45
2023-06-04T13:19:09.225Z,31.29
2023-06-04T13:21:36.520Z,31.35
2023-06-04T13:24:03.402Z,31.37
2023-06-04T13:26:30.080Z,31.24
2023-06-04T13:28:56.775Z,31.10
2023-06-04T13:31:23.321Z,31.38
2023-06-04T13:33:49.820Z,31.28
2023-06-04T13:36:16.460Z,31.43
2023-06-04T13:38:44.256Z,31.59
2023-06-04T13:41:11.170Z,31.52
2023-06-04T13:43:37.898Z,31.34
2023-06-04T13:46:05.025Z,31.40
2023-06-04T13:48:31.780Z,31.15
2023-06-04T13:50:58.347Z,31.16
2023-06-04T13:53:24.980Z,31.18
2023-06-04T13:55:58.583Z,31.05
2023-06-04T13:58:26.445Z,30.93
2023-06-04T14:00:53.404Z,30.96
2023-06-04T14:03:20.141Z,31.10
2023-06-04T14:05:46.849Z,30.84
2023-06-04T14:08:13.483Z,30.72
2023-06-04T14:10:43.639Z,30.83
2023-06-04T14:13:10.583Z,30.99
2023-06-04T14:15:37.842Z,30.87
2023-06-04T14:18:05.974Z,30.91
2023-06-04T14:20:32.602Z,30.92
2023-06-04T14:22:59.115Z,30.93
2023-06-04T14:25:25.620Z,31.12
2023-06-04T14:27:52.227Z,31.13
2023-06-04T14:30:18.738Z,30.96
2023-06-04T14:32:45.421Z,30.77
2023-06-04T14:35:11.904Z,30.58
2023-06-04T14:37:38.434Z,30.51
2023-06-04T14:40:06.089Z,30.34
2023-06-04T14:42:32.662Z,30.41
2023-06-04T14:44:59.288Z,30.23
2023-06-04T14:47:25.878Z,30.45
2023-06-04T14:49:52.403Z,30.54
2023-06-04T14:52:18.902Z,30.49
2023-06-04T14:54:45.481Z,30.56
2023-06-04T14:57:12.783Z,30.53
2023-06-04T14:59:40.185Z,30.18
2023-06-04T15:02:06.889Z,30.02
2023-06-04T15:04:33.612Z,29.59
2023-06-04T15:07:00.131Z,29.37
2023-06-04T15:09:26.740Z,28.90
2023-06-04T15:11:53.295Z,28.63
2023-06-04T15:14:19.759Z,28.21
2023-06-04T15:16:46.512Z,28.03
2023-06-04T15:19:13.145Z,27.84
2023-06-04T15:21:39.630Z,27.65
2023-06-04T15:24:06.252Z,27.61
2023-06-04T15:26:32.813Z,27.62
2023-06-04T15:28:59.350Z,27.76
2023-06-04T15:31:26.019Z,27.89
2023-06-04T15:33:52.648Z,27.78
2023-06-04T15:36:19.161Z,27.84
2023-06-04T15:38:45.742Z,27.95
2023-06-04T15:41:12.333Z,27.88
2023-06-04T15:43:38.910Z,27.82
2023-06-04T15:46:05.451Z,27.83
2023-06-04T15:48:32.325Z,27.91
2023-06-04T15:50:58.844Z,28.08
2023-06-04T15:53:25.999Z,28.21
2023-06-04T15:55:52.487Z,28.28
2023-06-04T15:58:19.104Z,28.40
2023-06-04T16:00:45.672Z,28.34
2023-06-04T16:03:12.238Z,28.36
2023-06-04T16:05:38.932Z,28.33
2023-06-04T16:08:05.502Z,28.32
2023-06-04T16:10:33.415Z,28.32
2023-06-04T16:12:59.913Z,28.29
2023-06-04T16:15:26.414Z,28.43
2023-06-04T16:17:52.956Z,28.50
2023-06-04T16:20:20.135Z,28.52
2023-06-04T16:22:47.120Z,28.53
2023-06-04T16:25:18.409Z,28.58
2023-06-04T16:27:48.340Z,28.45
2023-06-04T16:30:15.244Z,28.30
2023-06-04T16:32:42.054Z,28.34
2023-06-04T16:35:10.521Z,28.31
2023-06-04T16:37:39.880Z,28.44
2023-06-04T16:40:06.938Z,28.39
2023-06-04T16:42:33.974Z,28.32
2023-06-04T16:45:00.537Z,28.11
2023-06-04T16:47:27.125Z,28.12
2023-06-04T16:49:53.742Z,28.18
2023-06-04T16:52:20.412Z,28.25
2023-06-04T16:54:47.425Z,28.21
2023-06-04T16:57:14.141Z,28.17
2023-06-04T16:59:47.378Z,27.85
2023-06-04T17:02:14.721Z,27.53
2023-06-04T17:04:42.293Z,27.19
2023-06-04T17:07:09.277Z,26.96
2023-06-04T17:09:35.937Z,26.65
2023-06-04T17:12:02.646Z,26.44
2023-06-04T17:14:29.177Z,26.09
2023-06-04T17:16:56.251Z,25.87
2023-06-04T17:19:22.810Z,25.59
2023-06-04T17:21:49.305Z,25.18
2023-06-04T17:24:16.125Z,25.07
2023-06-04T17:26:42.983Z,24.93
2023-06-04T17:29:09.685Z,24.68
2023-06-04T17:31:36.381Z,24.49
2023-06-04T17:34:03.023Z,24.25
2023-06-04T17:36:29.574Z,24.13
2023-06-04T17:38:56.447Z,23.91
2023-06-04T17:41:23.125Z,23.79
2023-06-04T17:43:49.581Z,23.54
2023-06-04T17:46:16.316Z,23.51
2023-06-04T17:48:42.954Z,23.39
2023-06-04T17:51:09.516Z,23.32
2023-06-04T17:53:36.053Z,23.15
2023-06-04T17:56:02.811Z,23.12
2023-06-04T17:58:30.308Z,22.96
2023-06-04T18:00:57.552Z,22.93
2023-06-04T18:03:24.411Z,22.81
2023-06-04T18:05:51.010Z,22.68
2023-06-04T18:08:17.498Z,22.67
2023-06-04T18:10:44.068Z,22.64
2023-06-04T18:13:10.768Z,22.56
2023-06-04T18:15:37.349Z,22.42
2023-06-04T18:18:04.202Z,22.39
2023-06-04T18:20:30.773Z,22.34
2023-06-04T18:22:57.313Z,22.26
2023-06-04T18:25:25.228Z,22.21
2023-06-04T18:27:51.787Z,22.14
2023-06-04T18:30:18.410Z,22.08
2023-06-04T18:32:47.948Z,22.00
2023-06-04T18:35:15.573Z,21.95
2023-06-04T18:37:43.555Z,21.91
2023-06-04T18:40:13.191Z,21.85
2023-06-04T18:42:40.614Z,21.73
2023-06-04T18:45:10.352Z,21.69
2023-06-04T18:47:38.130Z,21.63
2023-06-04T18:50:05.488Z,21.51
2023-06-04T18:52:34.184Z,21.52
2023-06-04T18:55:01.446Z,21.48
2023-06-04T18:57:28.379Z,21.45
2023-06-04T18:59:54.933Z,21.39
2023-06-04T19:02:21.401Z,21.30
2023-06-04T19:04:48.136Z,21.22
2023-06-04T19:07:14.749Z,21.18
2023-06-04T19:09:41.219Z,21.12
2023-06-04T19:12:07.888Z,21.04
2023-06-04T19:14:34.915Z,20.91
2023-06-04T19:17:03.220Z,20.82
2023-06-04T19:19:29.715Z,20.75
2023-06-04T19:21:56.218Z,20.72
2023-06-04T19:24:22.800Z,20.65
2023-06-04T19:26:50.035Z,20.47
2023-06-04T19:29:16.738Z,20.41
2023-06-04T19:31:43.297Z,20.38
2023-06-04T19:34:09.988Z,20.32
2023-06-04T19:36:36.610Z,20.29
2023-06-04T19:39:03.147Z,20.21
2023-06-04T19:41:29.666Z,20.06
2023-06-04T19:43:56.228Z,19.88
2023-06-04T19:46:22.986Z,19.68
2023-06-04T19:48:51.965Z,19.62
2023-06-04T19:51:18.613Z,19.58
2023-06-04T19:53:45.134Z,19.51
2023-06-04T19:56:11.666Z,19.41
2023-06-04T19:58:38.183Z,19.41
2023-06-04T20:01:05.074Z,19.28
2023-06-04T20:03:32.558Z,19.17
2023-06-04T20:05:59.363Z,19.07
2023-06-04T20:08:26.975Z,18.99
2023-06-04T20:10:53.496Z,18.89
2023-06-04T20:13:20.030Z,18.84
2023-06-04T20:15:46.524Z,18.84
2023-06-04T20:18:13.388Z,18.76
2023-06-04T20:20:40.187Z,18.69
2023-06-04T20:23:06.812Z,18.64
2023-06-04T20:25:33.982Z,18.57
2023-06-04T20:28:00.750Z,18.51
2023-06-04T20:30:27.269Z,18.45
2023-06-04T20:32:56.383Z,18.37
2023-06-04T20:35:22.933Z,18.30
2023-06-04T20:37:50.050Z,18.25
2023-06-04T20:40:17.012Z,18.19
2023-06-04T20:42:43.609Z,18.09
2023-06-04T20:45:10.698Z,18.04
2023-06-04T20:47:37.319Z,17.95
2023-06-04T20:50:04.036Z,17.84
2023-06-04T20:52:30.732Z,17.81
2023-06-04T20:54:57.225Z,17.76
2023-06-04T20:57:23.720Z,17.72
2023-06-04T20:59:50.454Z,17.68
2023-06-04T21:02:17.067Z,17.60
2023-06-04T21:04:43.679Z,17.52
2023-06-04T21:07:12.402Z,17.50
2023-06-04T21:09:39.510Z,17.43
2023-06-04T21:12:07.068Z,17.31
2023-06-04T21:14:33.766Z,17.25
2023-06-04T21:17:00.374Z,17.20
2023-06-04T21:19:30.299Z,17.16
2023-06-04T21:21:57.099Z,17.20
2023-06-04T21:24:23.711Z,17.13
2023-06-04T21:26:50.287Z,17.17
2023-06-04T21:29:16.799Z,17.20
2023-06-04T21:31:43.348Z,17.16
2023-06-04T21:34:11.149Z,17.18
2023-06-04T21:36:37.719Z,17.20
2023-06-04T21:39:04.485Z,17.19
2023-06-04T21:41:31.042Z,17.18
2023-06-04T21:43:57.653Z,17.13
2023-06-04T21:46:24.748Z,17.07
2023-06-04T21:48:51.279Z,17.07
2023-06-04T21:51:17.862Z,17.01
2023-06-04T21:53:44.361Z,17.02
2023-06-04T21:56:10.889Z,16.95
2023-06-04T21:58:37.380Z,16.94
2023-06-04T22:01:03.937Z,16.84
2023-06-04T22:03:30.731Z,16.78
2023-06-04T22:05:57.637Z,16.75
2023-06-04T22:08:24.272Z,16.73
2023-06-04T22:10:50.797Z,16.69
2023-06-04T22:13:17.368Z,16.59
2023-06-04T22:15:43.901Z,16.61
2023-06-04T22:18:10.586Z,16.48
2023-06-04T22:20:37.181Z,16.44
2023-06-04T22:23:03.706Z,16.44
2023-06-04T22:25:30.257Z,16.34
2023-06-04T22:27:56.758Z,16.30
2023-06-04T22:30:23.259Z,16.28
2023-06-04T22:32:49.824Z,16.21
2023-06-04T22:35:16.624Z,16.21
2023-06-04T22:37:43.120Z,16.15
2023-06-04T22:40:09.812Z,16.14
2023-06-04T22:42:36.460Z,16.12
2023-06-04T22:45:03.135Z,16.10
2023-06-04T22:47:29.707Z,16.05
2023-06-04T22:49:56.257Z,16.00
2023-06-04T22:52:24.378Z,15.91
2023-06-04T22:54:50.954Z,15.91
2023-06-04T22:57:17.478Z,15.80
2023-06-04T22:59:43.957Z,15.78
2023-06-04T23:02:10.619Z,15.75
2023-06-04T23:04:37.761Z,15.62
2023-06-04T23:07:04.806Z,15.60
2023-06-04T23:09:31.352Z,15.55
2023-06-04T23:11:57.895Z,15.49
2023-06-04T23:14:24.398Z,15.42
2023-06-04T23:16:51.077Z,15.42
2023-06-04T23:19:17.645Z,15.41
2023-06-04T23:21:44.137Z,15.37
2023-06-04T23:24:10.646Z,15.30
2023-06-04T23:26:37.277Z,15.28
2023-06-04T23:29:03.898Z,15.24
2023-06-04T23:31:30.640Z,15.19
2023-06-04T23:33:57.180Z,15.16
2023-06-04T23:36:23.764Z,15.10
2023-06-04T23:38:50.327Z,15.04
2023-06-04T23:41:16.949Z,14.98
2023-06-04T23:43:43.602Z,14.92
2023-06-04T23:46:10.161Z,14.86
2023-06-04T23:48:36.843Z,14.78
2023-06-04T23:51:03.540Z,14.78
2023-06-04T23:53:30.082Z,14.74
2023-06-04T23:55:56.618Z,14.69
2023-06-04T23:58:23.087Z,14.63
